Time;durP1;ratioP1;P1;durP2;ratioP2;P2;SDS_P1;SDS_P2;PMS_P1;PMS_P2;Temp;Humidity;BMP_temperature;BMP_pressure;BME280_temperature;BME280_humidity;BME280_pressure;Samples;Min_cycle;Max_cycle;Signal;HPM_P1;HPM_P2
2021/08/16 00:01:53;;;;;;;27.95;12.15;;;;;;;18.39;73.50;99437.34;130001;1092;23124;-64
2021/08/16 00:04:21;;;;;;;21.98;13.13;;;;;;;18.39;73.71;99434.58;130051;1093;23101;-64
2021/08/16 00:06:51;;;;;;;26.88;12.20;;;;;;;18.38;73.60;99431.01;129729;1092;114242;-63
2021/08/16 00:09:38;;;;;;;23.28;11.88;;;;;;;18.38;74.05;99427.44;129989;1092;22629;-63
2021/08/16 00:12:07;;;;;;;27.05;12.50;;;;;;;18.36;73.78;99427.73;129898;1093;114012;-63
2021/08/16 00:14:54;;;;;;;;;;;;;;;18.36;73.66;99421.41;129847;1093;22682;-64
2021/08/16 00:17:21;;;;;;;30.30;12.93;;;;;;;18.34;73.43;99429.17;129958;1093;100286;-64
2021/08/16 00:19:52;;;;;;;27.33;13.65;;;;;;;18.33;73.74;99422.84;130077;1093;22619;-64
2021/08/16 00:22:20;;;;;;;20.65;12.83;;;;;;;18.32;73.93;99420.42;129993;1093;22566;-64
2021/08/16 00:24:49;;;;;;;22.60;13.00;;;;;;;18.33;74.47;99428.36;129930;1093;114191;-64
2021/08/16 00:27:27;;;;;;;21.48;12.68;;;;;;;18.33;74.03;99424.78;129984;1092;22518;-63
2021/08/16 00:29:55;;;;;;;24.68;13.65;;;;;;;18.32;74.19;99425.94;129923;1092;114152;-63
2021/08/16 00:32:31;;;;;;;21.03;12.53;;;;;;;18.34;74.66;99427.23;130016;1093;23173;-63
2021/08/16 00:34:59;;;;;;;20.48;13.03;;;;;;;18.33;74.69;99425.59;129981;1092;114208;-63
2021/08/16 00:37:47;;;;;;;24.08;13.10;;;;;;;18.30;74.32;99417.16;129459;1093;22556;-63
2021/08/16 00:40:15;;;;;;;27.15;13.18;;;;;;;18.22;74.01;99409.60;130046;1092;23815;-63
2021/08/16 00:43:03;;;;;;;;;;;;;;;18.25;73.47;99417.27;129929;1093;114142;-63
2021/08/16 00:45:30;;;;;;;;;;;;;;;18.20;73.60;99420.94;129993;1093;21281;-63
2021/08/16 00:48:18;;;;;;;20.58;12.48;;;;;;;18.17;73.83;99423.53;129934;1092;99016;-64
2021/08/16 00:50:45;;;;;;;27.18;14.08;;;;;;;18.14;74.18;99418.63;129838;1092;22534;-63
2021/08/16 00:53:15;;;;;;;22.08;14.08;;;;;;;18.10;73.79;99423.94;129686;1092;114236;-63
2021/08/16 00:55:45;;;;;;;24.55;12.68;;;;;;;18.07;74.16;99421.80;129767;1093;22532;-63
2021/08/16 00:58:15;;;;;;;32.23;14.93;;;;;;;18.07;74.48;99426.48;129826;1093;22541;-63
2021/08/16 01:01:02;;;;;;;28.80;14.65;;;;;;;18.03;74.33;99425.50;129831;1092;113928;-63
2021/08/16 01:03:30;;;;;;;29.90;14.85;;;;;;;17.99;74.06;99417.02;129795;1092;22580;-63
2021/08/16 01:05:58;;;;;;;40.40;15.73;;;;;;;17.98;74.53;99418.97;129781;1093;113968;-62
2021/08/16 01:08:52;;;;;;;24.83;14.95;;;;;;;17.97;74.46;99420.09;130026;1093;22599;-62
2021/08/16 01:11:21;;;;;;;33.03;14.88;;;;;;;17.97;74.61;99416.52;129730;1093;114268;-62
2021/08/16 01:14:07;;;;;;;31.03;15.05;;;;;;;17.95;74.57;99410.48;129967;1093;22622;-62
2021/08/16 01:16:38;;;;;;;33.05;14.98;;;;;;;17.94;74.39;99414.37;129879;1092;22581;-63
2021/08/16 01:19:25;;;;;;;;;;;;;;;17.90;74.81;99414.16;130000;1093;113905;-63
2021/08/16 01:21:52;;;;;;;31.78;15.25;;;;;;;17.86;74.94;99418.69;130004;1093;21328;-62
2021/08/16 01:24:20;;;;;;;33.90;14.83;;;;;;;17.84;74.76;99415.41;129704;1091;113843;-62
2021/08/16 01:26:48;;;;;;;28.80;15.08;;;;;;;17.81;74.64;99413.27;130023;1093;23114;-62
2021/08/16 01:29:23;;;;;;;26.00;15.13;;;;;;;17.80;75.10;99414.39;129703;1093;114494;-62
2021/08/16 01:31:58;;;;;;;29.33;14.65;;;;;;;17.76;75.13;99405.09;130050;1092;22547;-63
2021/08/16 01:34:26;;;;;;;30.63;15.55;;;;;;;17.74;75.26;99407.38;129901;1093;22588;-63
2021/08/16 01:36:53;;;;;;;28.40;15.28;;;;;;;17.72;75.21;99401.34;129885;1092;114860;-63
2021/08/16 01:39:21;;;;;;;32.20;15.63;;;;;;;17.71;75.54;99409.92;129387;1092;22577;-62
2021/08/16 01:41:48;;;;;;;27.95;15.33;;;;;;;17.71;76.02;99413.49;129769;1092;114293;-64
2021/08/16 01:44:16;;;;;;;27.93;15.15;;;;;;;17.70;76.08;99400.84;129819;1093;22944;-63
2021/08/16 01:46:44;;;;;;;27.65;15.78;;;;;;;17.70;75.99;99400.02;129737;1093;22583;-63
2021/08/16 01:49:11;;;;;;;28.50;16.13;;;;;;;17.69;76.21;99404.72;129890;1092;114100;-64
2021/08/16 01:51:39;;;;;;;23.63;14.93;;;;;;;17.69;76.25;99406.66;129994;1093;22539;-63
2021/08/16 01:54:08;;;;;;;25.28;14.68;;;;;;;17.67;75.83;99409.71;129898;1093;114882;-63
2021/08/16 01:56:37;;;;;;;23.65;15.78;;;;;;;17.67;76.30;99404.20;130014;1093;22554;-63
2021/08/16 01:59:04;;;;;;;24.37;15.10;;;;;;;17.66;75.86;99405.33;129753;1093;114514;-63
2021/08/16 02:01:32;;;;;;;24.70;14.35;;;;;;;17.65;75.93;99396.23;130001;1093;22605;-64
2021/08/16 02:04:00;;;;;;;26.60;14.93;;;;;;;17.66;76.01;99406.14;129981;1092;22606;-63
2021/08/16 02:06:28;;;;;;;27.70;15.73;;;;;;;17.66;75.82;99406.14;129870;1092;114262;-63
2021/08/16 02:08:56;;;;;;;24.10;15.80;;;;;;;17.68;76.23;99399.51;129847;1093;22560;-63
2021/08/16 02:11:24;;;;;;;27.98;16.65;;;;;;;17.68;76.02;99408.59;129894;1092;114602;-63
2021/08/16 02:13:51;;;;;;;28.28;15.68;;;;;;;17.69;75.94;99410.23;129988;1093;22673;-63
2021/08/16 02:16:19;;;;;;;26.05;15.63;;;;;;;17.70;75.84;99402.78;129802;1092;22539;-63
2021/08/16 02:18:47;;;;;;;26.60;14.75;;;;;;;17.70;76.04;99408.28;129942;1092;114127;-63
2021/08/16 02:21:14;;;;;;;29.00;15.15;;;;;;;17.69;75.77;99406.66;130026;1092;23467;-63
2021/08/16 02:23:41;;;;;;;25.13;15.08;;;;;;;17.68;75.96;99410.53;129927;1093;114563;-64
2021/08/16 02:26:11;;;;;;;24.45;15.53;;;;;;;17.68;76.28;99414.10;129990;1093;22561;-64
2021/08/16 02:28:38;;;;;;;26.78;16.45;;;;;;;17.68;76.22;99416.04;130006;1093;22588;-63
2021/08/16 02:31:06;;;;;;;31.13;15.70;;;;;;;17.67;76.66;99423.48;129937;1092;114269;-64
2021/08/16 02:33:33;;;;;;;24.73;14.98;;;;;;;17.66;76.69;99427.36;129859;1093;22482;-63
2021/08/16 02:36:01;;;;;;;28.45;15.95;;;;;;;17.64;76.45;99435.94;129891;1093;114158;-64
2021/08/16 02:38:28;;;;;;;24.93;14.90;;;;;;;17.64;76.62;99435.12;129866;1093;22602;-63
2021/08/16 02:40:56;;;;;;;29.98;15.63;;;;;;;17.62;76.81;99426.31;130003;1092;22700;-63
2021/08/16 02:43:27;;;;;;;23.83;15.48;;;;;;;17.61;76.69;99432.94;129840;1093;114336;-63
2021/08/16 02:46:00;;;;;;;27.03;15.50;;;;;;;17.60;76.48;99423.85;129892;1093;22598;-63
2021/08/16 02:48:28;;;;;;;26.00;15.85;;;;;;;17.57;76.29;99424.49;129886;1093;114128;-63
2021/08/16 02:50:56;;;;;;;21.88;15.03;;;;;;;17.55;76.27;99418.47;129919;1092;22557;-63
2021/08/16 02:53:23;;;;;;;27.05;15.80;;;;;;;17.54;76.43;99424.28;129892;1093;114563;-64
2021/08/16 02:55:51;;;;;;;31.90;16.03;;;;;;;17.53;76.72;99422.65;130077;1093;22515;-64
2021/08/16 02:58:18;;;;;;;24.53;15.88;;;;;;;17.53;76.94;99439.17;130009;1093;22546;-63
2021/08/16 03:00:45;;;;;;;23.40;15.30;;;;;;;17.52;76.85;99429.27;129673;1093;114495;-64
2021/08/16 03:03:13;;;;;;;27.60;16.03;;;;;;;17.52;76.82;99423.77;129991;1092;22495;-64
2021/08/16 03:05:41;;;;;;;23.95;14.83;;;;;;;17.53;77.11;99428.97;129889;1093;114354;-64
2021/08/16 03:08:09;;;;;;;26.33;16.00;;;;;;;17.54;77.02;99432.55;129953;1092;22541;-64
2021/08/16 03:10:37;;;;;;;30.38;14.30;;;;;;;17.54;77.18;99438.05;129855;1093;23501;-64
2021/08/16 03:13:12;;;;;;;24.60;16.10;;;;;;;17.54;77.24;99433.36;129931;1093;114328;-64
2021/08/16 03:15:39;;;;;;;24.73;15.50;;;;;;;17.56;77.44;99433.88;129984;1093;23118;-64
2021/08/16 03:18:27;;;;;;;21.85;15.18;;;;;;;17.59;77.51;99435.21;129899;1092;114188;-63
2021/08/16 03:20:54;;;;;;;22.03;14.55;;;;;;;17.59;77.48;99427.77;129998;1092;22527;-63
2021/08/16 03:23:22;;;;;;;30.43;17.00;;;;;;;17.60;77.36;99420.31;129903;1093;114144;-63
2021/08/16 03:25:50;;;;;;;29.85;16.00;;;;;;;17.58;77.67;99419.80;129961;1092;23792;-63
2021/08/16 03:28:17;;;;;;;31.50;16.80;;;;;;;17.68;77.75;99429.81;129990;1092;22540;-63
2021/08/16 03:30:47;;;;;;;29.03;16.45;;;;;;;17.72;78.28;99423.39;129712;1093;114419;-63
2021/08/16 03:33:15;;;;;;;26.80;15.18;;;;;;;17.79;78.36;99420.20;130034;1093;23095;-64
2021/08/16 03:35:42;;;;;;;27.53;15.23;;;;;;;17.86;78.48;99421.44;129881;1092;114329;-63
2021/08/16 03:38:10;;;;;;;31.00;14.88;;;;;;;17.94;78.32;99415.19;130001;1093;22492;-64
2021/08/16 03:40:38;;;;;;;28.85;15.23;;;;;;;18.03;78.20;99420.80;130078;1092;23116;-63
2021/08/16 03:43:06;;;;;;;23.00;14.75;;;;;;;18.11;78.43;99424.75;129897;1093;114355;-64
2021/08/16 03:45:33;;;;;;;24.60;13.88;;;;;;;18.20;78.45;99415.42;130100;1093;23342;-63
2021/08/16 03:48:01;;;;;;;24.85;14.93;;;;;;;18.28;78.50;99420.22;129986;1092;114095;-63
2021/08/16 03:50:28;;;;;;;23.85;14.80;;;;;;;18.38;78.57;99413.64;130047;1093;22549;-63
2021/08/16 03:52:56;;;;;;;26.45;14.50;;;;;;;18.47;78.32;99408.18;130068;1093;22718;-63
2021/08/16 03:55:23;;;;;;;25.95;16.23;;;;;;;18.55;78.07;99419.30;129688;1093;114085;-63
2021/08/16 03:57:51;;;;;;;27.25;13.98;;;;;;;18.64;77.59;99414.68;130031;1093;23090;-63
2021/08/16 04:00:19;;;;;;;22.38;14.35;;;;;;;18.74;76.88;99421.09;129917;1092;114397;-64
2021/08/16 04:02:47;;;;;;;28.88;16.05;;;;;;;18.84;76.71;99409.78;130069;1093;22547;-64
2021/08/16 04:05:15;;;;;;;33.53;15.47;;;;;;;18.95;76.26;99408.39;129962;1093;114274;-64
2021/08/16 04:07:43;;;;;;;22.30;16.23;;;;;;;19.04;76.06;99412.81;130052;1093;23409;-64
2021/08/16 04:10:12;;;;;;;22.38;14.23;;;;;;;19.16;75.75;99411.44;130007;1093;22627;-63
2021/08/16 04:12:47;;;;;;;27.85;14.30;;;;;;;19.26;76.07;99419.44;129913;1093;114242;-64
2021/08/16 04:15:17;;;;;;;30.93;14.45;;;;;;;19.36;75.59;99416.39;130017;1093;22604;-64
2021/08/16 04:17:57;;;;;;;27.70;14.75;;;;;;;19.49;75.61;99418.27;129951;1092;114560;-64
2021/08/16 04:20:25;;;;;;;23.73;14.65;;;;;;;19.60;75.79;99427.92;130013;1092;22521;-64
2021/08/16 04:22:52;;;;;;;28.05;14.28;;;;;;;19.70;75.39;99419.33;130011;1092;22574;-64
2021/08/16 04:25:25;;;;;;;25.35;13.90;;;;;;;19.69;74.52;99400.30;129905;1092;114271;-64
2021/08/16 04:27:53;;;;;;;25.30;14.28;;;;;;;19.90;73.94;99417.92;130018;1093;22551;-64
2021/08/16 04:30:22;;;;;;;27.35;13.93;;;;;;;20.00;73.64;99419.56;129796;1093;114466;-64
2021/08/16 04:32:50;;;;;;;31.30;13.45;;;;;;;20.12;73.13;99423.31;129834;1093;22525;-64
2021/08/16 04:35:19;;;;;;;24.35;13.90;;;;;;;20.23;73.14;99417.45;129856;1092;114385;-63
2021/08/16 04:37:46;;;;;;;43.65;15.98;;;;;;;20.36;72.04;99427.59;130021;1093;23341;-63
2021/08/16 04:40:14;;;;;;;44.15;15.25;;;;;;;20.47;71.32;99415.08;129990;1093;22550;-62
2021/08/16 04:42:42;;;;;;;26.78;14.20;;;;;;;20.60;70.87;99416.86;129890;1092;114362;-63
2021/08/16 04:45:17;;;;;;;24.85;13.75;;;;;;;20.75;70.11;99419.13;129790;1093;22538;-64
2021/08/16 04:47:44;;;;;;;25.38;13.73;;;;;;;20.90;69.96;99416.98;129929;1093;114265;-63
2021/08/16 04:50:13;;;;;;;25.40;13.00;;;;;;;21.07;69.25;99417.73;129848;1093;22538;-64
2021/08/16 04:52:41;;;;;;;25.30;13.95;;;;;;;21.25;68.93;99424.08;129857;1093;22539;-63
2021/08/16 04:55:08;;;;;;;22.98;12.90;;;;;;;21.50;68.18;99419.58;129885;1092;114517;-62
2021/08/16 04:57:48;;;;;;;14.75;11.28;;;;;;;21.82;67.05;99413.38;129818;1092;22557;-61
2021/08/16 05:00:18;;;;;;;25.53;11.88;;;;;;;22.16;66.02;99406.84;129656;1092;114235;-60
2021/08/16 05:02:45;;;;;;;23.95;11.73;;;;;;;22.41;64.81;99413.33;129878;1093;22494;-60
2021/08/16 05:05:16;;;;;;;23.18;12.13;;;;;;;22.58;63.96;99404.86;129752;1093;114227;-61
2021/08/16 05:08:02;;;;;;;24.60;12.13;;;;;;;22.85;63.52;99411.82;129816;1093;22557;-61
2021/08/16 05:10:30;;;;;;;24.00;12.80;;;;;;;23.16;62.98;99402.18;130024;1093;22591;-61
2021/08/16 05:12:59;;;;;;;21.38;12.40;;;;;;;23.53;62.06;99409.43;129709;1093;114342;-61
2021/08/16 05:15:27;;;;;;;34.08;12.18;;;;;;;23.90;61.19;99401.09;129830;1092;22559;-61
2021/08/16 05:18:11;;;;;;;32.05;11.45;;;;;;;24.30;59.82;99398.38;129724;1092;114552;-61
2021/08/16 05:20:38;;;;;;;27.18;10.50;;;;;;;24.63;58.76;99400.94;130002;1093;22663;-61
2021/08/16 05:23:26;;;;;;;20.58;11.70;;;;;;;25.03;57.59;99400.08;129736;1092;114275;-61
2021/08/16 05:25:53;;;;;;;18.70;10.20;;;;;;;25.37;56.52;99396.62;130025;1093;22562;-60
2021/08/16 05:28:22;;;;;;;14.18;9.73;;;;;;;25.70;55.36;99408.22;129770;1093;22618;-62
2021/08/16 05:30:49;;;;;;;20.95;11.00;;;;;;;26.01;54.51;99409.35;129856;1093;114206;-62
2021/08/16 05:33:17;;;;;;;27.25;13.83;;;;;;;26.31;54.29;99410.47;129861;1093;22499;-62
2021/08/16 05:35:45;;;;;;;26.53;14.85;;;;;;;26.58;53.65;99410.63;129877;1093;114326;-61
2021/08/16 05:38:13;;;;;;;22.30;12.78;;;;;;;26.81;52.95;99414.32;130010;1093;23088;-62
2021/08/16 05:40:41;;;;;;;22.53;11.75;;;;;;;27.03;52.55;99424.77;129998;1093;22764;-62
2021/08/16 05:43:08;;;;;;;20.25;10.83;;;;;;;27.23;51.96;99425.55;129732;1092;114360;-62
2021/08/16 05:45:36;;;;;;;21.20;10.73;;;;;;;27.38;50.67;99432.21;129975;1093;22563;-62
2021/08/16 05:48:03;;;;;;;18.65;10.45;;;;;;;27.49;50.64;99435.19;129885;1093;114491;-62
2021/08/16 05:50:31;;;;;;;24.63;10.28;;;;;;;27.51;50.02;99428.05;129764;1092;22539;-62
2021/08/16 05:52:58;;;;;;;23.50;10.88;;;;;;;27.53;49.77;99427.67;129833;1093;22540;-62
2021/08/16 05:55:26;;;;;;;23.75;11.03;;;;;;;27.52;49.44;99423.26;129891;1093;113942;-64
2021/08/16 05:57:54;;;;;;;26.85;10.55;;;;;;;27.46;50.31;99415.16;129972;1093;22619;-64
2021/08/16 06:00:22;;;;;;;24.03;10.50;;;;;;;27.40;50.11;99419.47;129878;1093;114361;-64
2021/08/16 06:02:55;;;;;;;18.68;9.85;;;;;;;27.32;49.62;99420.51;129831;1093;22591;-65
2021/08/16 06:05:23;;;;;;;20.10;10.05;;;;;;;27.27;49.76;99408.84;129723;1093;114421;-64
2021/08/16 06:07:51;;;;;;;22.10;10.98;;;;;;;27.21;49.29;99404.72;129921;1092;22536;-64
2021/08/16 06:10:19;;;;;;;16.30;8.83;;;;;;;27.16;49.73;99396.63;129977;1093;22659;-64
2021/08/16 06:12:47;;;;;;;11.03;8.18;;;;;;;27.11;49.68;99403.34;129893;1092;113754;-64
2021/08/16 06:15:34;;;;;;;27.83;9.35;;;;;;;27.05;49.67;99399.23;129804;1093;22606;-64
2021/08/16 06:18:02;;;;;;;18.43;8.53;;;;;;;26.97;49.49;99392.70;129668;1093;114121;-64
2021/08/16 06:20:29;;;;;;;13.35;8.70;;;;;;;26.91;49.96;99401.72;129739;1093;22565;-64
2021/08/16 06:23:09;;;;;;;12.85;9.28;;;;;;;26.85;50.29;99404.00;129941;1093;113853;-64
2021/08/16 06:25:38;;;;;;;28.53;10.10;;;;;;;26.82;50.63;99403.95;129980;1093;22541;-64
2021/08/16 06:28:05;;;;;;;21.38;8.93;;;;;;;26.82;50.57;99404.76;129938;1092;22627;-65
2021/08/16 06:30:34;;;;;;;15.50;8.68;;;;;;;26.84;50.07;99404.36;129876;1092;114214;-65
2021/08/16 06:33:02;;;;;;;20.15;9.78;;;;;;;26.86;50.00;99410.40;129974;1092;22545;-64
2021/08/16 06:35:35;;;;;;;17.53;8.47;;;;;;;26.88;50.76;99414.45;129888;1093;114464;-64
2021/08/16 06:38:09;;;;;;;9.58;7.05;;;;;;;26.90;50.94;99411.28;129959;1092;22639;-65
2021/08/16 06:40:37;;;;;;;14.00;7.78;;;;;;;26.92;50.91;99408.94;129980;1092;23001;-64
2021/08/16 06:43:05;;;;;;;13.43;8.78;;;;;;;26.95;50.01;99419.41;129715;1092;113918;-64
2021/08/16 06:45:32;;;;;;;19.00;8.60;;;;;;;26.96;50.44;99409.85;129837;1093;23378;-64
2021/08/16 06:48:00;;;;;;;26.58;8.93;;;;;;;26.98;50.22;99410.30;129841;1093;114466;-64
2021/08/16 06:50:27;;;;;;;16.40;7.63;;;;;;;27.00;51.23;99410.70;129933;1093;22612;-64
2021/08/16 06:52:55;;;;;;;18.18;9.23;;;;;;;27.03;50.80;99401.58;129845;1093;22548;-64
2021/08/16 06:55:27;;;;;;;36.68;10.63;;;;;;;27.06;51.86;99415.64;129877;1093;113716;-64
2021/08/16 06:58:14;;;;;;;23.65;8.60;;;;;;;27.12;51.50;99404.97;129965;1093;22552;-64
2021/08/16 07:01:02;;;;;;;35.73;9.10;;;;;;;27.18;51.49;99408.25;129862;1093;114357;-64
2021/08/16 07:03:30;;;;;;;17.38;8.65;;;;;;;27.24;50.89;99409.58;130016;1093;22535;-64
2021/08/16 07:05:58;;;;;;;17.28;9.25;;;;;;;27.27;50.65;99406.03;129925;1093;114054;-64
2021/08/16 07:08:26;;;;;;;16.30;9.53;;;;;;;27.30;50.66;99408.06;129851;1092;23055;-64
2021/08/16 07:10:57;;;;;;;16.85;9.13;;;;;;;27.33;50.87;99412.92;130016;1092;22652;-64
2021/08/16 07:13:29;;;;;;;39.65;8.83;;;;;;;27.34;49.66;99411.75;129857;1092;113742;-64
2021/08/16 07:15:56;;;;;;;9.35;7.35;;;;;;;27.38;49.67;99410.64;129816;1093;22507;-65
2021/08/16 07:18:24;;;;;;;10.13;7.68;;;;;;;27.42;49.00;99414.28;129852;1093;114126;-64
2021/08/16 07:20:52;;;;;;;11.23;7.40;;;;;;;27.48;50.31;99417.59;129976;1093;22677;-64
2021/08/16 07:23:21;;;;;;;10.98;7.65;;;;;;;27.49;49.63;99416.41;129735;1093;114277;-64
2021/08/16 07:25:48;;;;;;;11.83;7.35;;;;;;;27.51;50.18;99416.04;129799;1093;22560;-64
2021/08/16 07:28:15;;;;;;;10.45;7.65;;;;;;;27.54;49.47;99420.90;129909;1093;22537;-64
2021/08/16 07:30:43;;;;;;;14.45;7.25;;;;;;;27.59;49.22;99424.20;129900;1093;114790;-64
2021/08/16 07:34:37;;;;;;;11.98;6.90;;;;;;;27.65;49.24;99417.13;125628;1092;22819;-65
2021/08/16 07:37:19;;;;;;;10.98;7.10;;;;;;;27.70;48.87;99416.00;125291;1092;113700;-65
2021/08/16 07:39:48;;;;;;;13.08;7.65;;;;;;;27.72;49.85;99413.61;129987;1093;23936;-66
2021/08/16 07:42:20;;;;;;;10.08;7.45;;;;;;;27.75;48.36;99410.07;129999;1093;113903;-64
2021/08/16 07:44:52;;;;;;;12.10;7.18;;;;;;;27.77;47.40;99413.30;129867;1093;23219;-64
2021/08/16 07:47:21;;;;;;;8.60;6.90;;;;;;;27.79;48.46;99413.74;129941;1093;114075;-64
2021/08/16 07:49:50;;;;;;;11.50;6.53;;;;;;;27.81;48.58;99416.98;130075;1093;22626;-65
2021/08/16 07:52:18;;;;;;;11.00;6.95;;;;;;;27.82;47.94;99421.40;129817;1093;22567;-64
2021/08/16 07:54:47;;;;;;;9.08;6.75;;;;;;;27.86;47.84;99424.23;129692;1092;113897;-64
2021/08/16 07:57:16;;;;;;;10.78;6.75;;;;;;;27.88;47.37;99419.88;129818;1093;22514;-65
2021/08/16 07:59:45;;;;;;;12.53;6.30;;;;;;;27.90;47.05;99423.11;129825;1092;113996;-64
2021/08/16 08:02:14;;;;;;;8.73;6.10;;;;;;;27.93;47.56;99422.36;130032;1093;22704;-64
2021/08/16 08:04:43;;;;;;;16.20;6.83;;;;;;;27.97;47.31;99428.03;129831;1093;22561;-64
2021/08/16 08:07:12;;;;;;;12.70;6.73;;;;;;;27.98;47.84;99415.64;129929;1092;114247;-65
2021/08/16 08:09:52;;;;;;;10.68;7.50;;;;;;;28.00;47.43;99419.66;130009;1093;22744;-64
2021/08/16 08:12:21;;;;;;;11.38;6.30;;;;;;;28.02;47.46;99422.89;129997;1093;114012;-64
2021/08/16 08:14:51;;;;;;;18.78;7.53;;;;;;;28.08;47.54;99424.20;129974;1093;22555;-64
2021/08/16 08:17:23;;;;;;;13.13;6.93;;;;;;;28.11;48.25;99414.23;129880;1092;113877;-64
2021/08/16 08:19:54;;;;;;;9.23;6.40;;;;;;;28.14;47.81;99411.47;129972;1093;22552;-65
2021/08/16 08:22:23;;;;;;;9.25;6.80;;;;;;;28.17;48.19;99404.30;129947;1093;22512;-65
2021/08/16 08:24:53;;;;;;;8.58;6.20;;;;;;;28.22;47.95;99409.63;129883;1093;114011;-65
2021/08/16 08:27:22;;;;;;;8.93;5.95;;;;;;;28.27;47.62;99411.30;130010;1093;22541;-65
2021/08/16 08:29:51;;;;;;;7.70;6.13;;;;;;;28.31;47.33;99412.13;129916;1092;113932;-65
2021/08/16 08:32:20;;;;;;;7.10;5.70;;;;;;;28.34;45.56;99411.38;129981;1092;23751;-65
2021/08/16 08:34:49;;;;;;;10.10;6.25;;;;;;;28.36;45.45;99418.22;130037;1093;22562;-65
2021/08/16 08:37:18;;;;;;;10.28;6.15;;;;;;;28.39;45.20;99417.47;129835;1093;114024;-65
2021/08/16 08:39:47;;;;;;;9.28;6.00;;;;;;;28.40;44.46;99421.89;129821;1092;22537;-65
2021/08/16 08:42:16;;;;;;;8.65;6.10;;;;;;;28.42;45.42;99416.69;129770;1093;114109;-65
2021/08/16 08:44:45;;;;;;;11.85;6.35;;;;;;;28.45;45.11;99415.13;129902;1093;23297;-65
2021/08/16 08:47:14;;;;;;;11.78;6.78;;;;;;;28.48;45.27;99422.78;129691;1093;113949;-65
2021/08/16 08:49:43;;;;;;;10.80;6.28;;;;;;;28.50;45.66;99414.80;129836;1093;22545;-66
2021/08/16 08:52:14;;;;;;;11.03;6.10;;;;;;;28.52;45.66;99414.42;129776;1093;22583;-65
2021/08/16 08:54:42;;;;;;;10.33;6.15;;;;;;;28.55;45.00;99428.50;129698;1093;114156;-65
2021/08/16 08:57:31;;;;;;;13.30;6.95;;;;;;;28.59;44.74;99417.30;129833;1093;22592;-65
2021/08/16 09:00:00;;;;;;;7.20;5.65;;;;;;;28.60;44.25;99418.92;129669;1093;113262;-65
2021/08/16 09:02:29;;;;;;;11.90;6.45;;;;;;;28.62;43.95;99410.94;129794;1093;23514;-65
2021/08/16 09:05:00;;;;;;;7.45;6.33;;;;;;;28.64;44.13;99411.38;129816;1093;22631;-65
2021/08/16 09:07:39;;;;;;;7.50;6.00;;;;;;;28.65;44.74;99415.80;129734;1092;113438;-65
2021/08/16 09:10:16;;;;;;;23.83;7.58;;;;;;;28.65;44.33;99404.58;129807;1091;23765;-65
2021/08/16 09:12:45;;;;;;;8.93;6.15;;;;;;;28.65;43.35;99410.19;129711;1092;114124;-65
2021/08/16 09:15:19;;;;;;;10.25;6.40;;;;;;;28.65;43.56;99404.58;129847;1093;22567;-65
2021/08/16 09:17:48;;;;;;;9.40;6.40;;;;;;;28.63;44.18;99402.16;129703;1093;113831;-65
2021/08/16 09:20:24;;;;;;;10.00;6.00;;;;;;;28.65;44.46;99404.58;129822;1091;22535;-65
2021/08/16 09:23:02;;;;;;;19.35;6.68;;;;;;;28.66;44.34;99404.20;129803;1093;22514;-66
2021/08/16 09:25:36;;;;;;;19.70;6.90;;;;;;;28.69;43.89;99400.64;129714;1092;113582;-66
2021/08/16 09:28:07;;;;;;;16.23;6.83;;;;;;;28.72;43.83;99399.84;129798;1093;22689;-66
2021/08/16 09:30:39;;;;;;;10.05;6.10;;;;;;;28.76;44.11;99391.48;129747;1093;114507;-67
2021/08/16 09:33:11;;;;;;;13.63;6.43;;;;;;;28.79;43.94;99387.95;129806;1093;22550;-66
2021/08/16 09:35:57;;;;;;;8.68;4.93;;;;;;;28.82;42.39;99387.20;129689;1093;113310;-66
2021/08/16 09:38:33;;;;;;;10.08;7.25;;;;;;;28.83;42.20;99386.00;129858;1093;22581;-65
2021/08/16 09:41:04;;;;;;;7.83;6.03;;;;;;;28.85;42.25;99383.63;129804;1093;22540;-66
2021/08/16 09:43:33;;;;;;;12.40;5.85;;;;;;;28.85;42.83;99387.21;129712;1093;113820;-65
2021/08/16 09:46:12;;;;;;;9.45;5.40;;;;;;;28.88;42.70;99379.22;129844;1093;22659;-65
2021/08/16 09:49:03;;;;;;;9.55;6.13;;;;;;;28.88;41.50;99376.42;129705;1092;114115;-65
2021/08/16 09:51:34;;;;;;;8.13;5.53;;;;;;;28.90;41.07;99362.82;129807;1092;22580;-65
2021/08/16 09:54:03;;;;;;;8.70;6.10;;;;;;;28.95;41.58;99370.90;129707;1092;113633;-65
2021/08/16 09:56:34;;;;;;;6.85;5.58;;;;;;;28.98;41.63;99356.92;129847;1092;22537;-65
2021/08/16 09:59:04;;;;;;;9.05;5.03;;;;;;;29.03;41.42;99361.35;129851;1093;22554;-65
2021/08/16 10:01:35;;;;;;;15.65;5.93;;;;;;;29.08;42.23;99358.20;129658;1093;112866;-65
2021/08/16 10:04:04;;;;;;;11.13;6.20;;;;;;;29.12;42.53;99350.64;129869;1093;22521;-65
2021/08/16 10:06:33;;;;;;;9.70;5.98;;;;;;;29.15;41.44;99356.27;129678;1092;114005;-65
2021/08/16 10:09:03;;;;;;;7.93;5.23;;;;;;;29.18;41.73;99357.49;129775;1093;23089;-65
2021/08/16 10:11:46;;;;;;;6.00;4.98;;;;;;;29.18;41.69;99352.69;129743;1092;113455;-65
2021/08/16 10:14:17;;;;;;;10.75;5.20;;;;;;;29.19;41.33;99354.30;129815;1093;22598;-65
2021/08/16 10:16:50;;;;;;;8.83;5.95;;;;;;;29.20;41.33;99349.50;129724;1093;23522;-65
2021/08/16 10:19:41;;;;;;;11.13;5.73;;;;;;;29.21;42.07;99353.92;129718;1093;113547;-65
2021/08/16 10:22:10;;;;;;;10.68;5.65;;;;;;;29.23;41.13;99359.15;129835;1092;22539;-65
2021/08/16 10:24:39;;;;;;;7.50;5.48;;;;;;;29.22;41.50;99351.92;129722;1092;113896;-65
2021/08/16 10:27:09;;;;;;;7.65;5.58;;;;;;;29.24;41.07;99341.13;129812;1093;22523;-65
2021/08/16 10:29:45;;;;;;;14.03;5.90;;;;;;;29.26;42.00;99336.73;129727;1093;113350;-65
2021/08/16 10:32:19;;;;;;;9.80;5.35;;;;;;;29.29;40.59;99343.58;129786;1093;22630;-65
2021/08/16 10:34:48;;;;;;;16.15;7.85;;;;;;;29.32;40.75;99342.78;129830;1092;23560;-64
2021/08/16 10:37:19;;;;;;;8.55;5.13;;;;;;;29.32;40.83;99340.78;129674;1093;114241;-65
2021/08/16 10:39:49;;;;;;;11.40;5.27;;;;;;;29.34;40.30;99329.17;129834;1093;22541;-65
2021/08/16 10:42:19;;;;;;;9.18;5.13;;;;;;;29.37;41.24;99325.59;129712;1093;113944;-65
2021/08/16 10:45:09;;;;;;;12.63;6.03;;;;;;;29.39;41.16;99326.05;129783;1093;22561;-65
2021/08/16 10:47:38;;;;;;;8.90;5.58;;;;;;;29.36;40.08;99318.36;129690;1093;113995;-64
2021/08/16 10:50:08;;;;;;;7.08;5.13;;;;;;;29.37;40.10;99326.41;129831;1093;22529;-65
2021/08/16 10:52:39;;;;;;;8.00;5.20;;;;;;;29.35;39.90;99320.36;129810;1093;22643;-64
2021/08/16 10:55:14;;;;;;;11.20;5.90;;;;;;;29.35;40.26;99327.98;129737;1093;114089;-65
2021/08/16 10:57:43;;;;;;;10.20;5.13;;;;;;;29.35;39.95;99328.78;129804;1092;22553;-65
2021/08/16 11:00:13;;;;;;;9.40;5.75;;;;;;;29.36;40.60;99326.78;129742;1093;114330;-65
2021/08/16 11:02:42;;;;;;;10.88;5.85;;;;;;;29.39;40.51;99326.85;129739;1093;22577;-64
2021/08/16 11:05:12;;;;;;;10.68;5.83;;;;;;;29.42;40.96;99330.89;129842;1093;22494;-65
2021/08/16 11:07:40;;;;;;;9.43;5.30;;;;;;;29.44;39.85;99323.66;129706;1092;113609;-66
2021/08/16 11:10:10;;;;;;;9.40;5.30;;;;;;;29.45;40.08;99319.66;129802;1093;23801;-65
2021/08/16 11:12:43;;;;;;;14.20;5.98;;;;;;;29.46;40.66;99315.66;129683;1093;114000;-65
2021/08/16 11:15:33;;;;;;;6.35;4.73;;;;;;;29.46;40.06;99315.66;129789;1092;22551;-66
2021/08/16 11:18:21;;;;;;;9.15;5.73;;;;;;;29.46;40.19;99310.05;129706;1093;114191;-65
2021/08/16 11:21:00;;;;;;;7.13;4.88;;;;;;;29.49;40.17;99322.51;129811;1092;22557;-65
2021/08/16 11:23:29;;;;;;;6.68;5.10;;;;;;;29.53;40.29;99314.92;129742;1093;113749;-65
2021/08/16 11:25:58;;;;;;;19.38;5.83;;;;;;;29.55;40.15;99306.92;129823;1093;22522;-64
2021/08/16 11:28:29;;;;;;;27.88;7.05;;;;;;;29.56;41.33;99314.15;129766;1093;22571;-65
2021/08/16 11:31:04;;;;;;;7.85;5.40;;;;;;;29.59;41.02;99310.54;129721;1093;113713;-65